Time;durP1;ratioP1;P1;durP2;ratioP2;P2;SDS_P1;SDS_P2;PMS_P1;PMS_P2;Temp;Humidity;BMP_temperature;BMP_pressure;BME280_temperature;BME280_humidity;BME280_pressure;Samples;Min_cycle;Max_cycle;Signal;HPM_P1;HPM_P2
2022/05/12 00:00:49;;;;;;;;;;;16.30;86.80;;;;;;4987498;28;19921;-80
2022/05/12 00:03:16;;;;;;;;;;;16.40;86.00;;;;;;4990591;28;20399;-80
2022/05/12 00:05:42;;;;;;;;;;;16.40;86.20;;;;;;4990182;28;19933;-80
2022/05/12 00:08:07;;;;;;;;;;;16.40;86.60;;;;;;4989521;28;19917;-80
2022/05/12 00:10:33;;;;;;;;;;;16.40;85.90;;;;;;4990123;28;19917;-79
2022/05/12 00:12:59;;;;;;;;;;;16.50;85.90;;;;;;4990873;28;19914;-80
2022/05/12 00:15:25;;;;;;;;;;;16.40;86.10;;;;;;4996225;28;20423;-79
2022/05/12 00:17:51;;;;;;;;;;;16.50;86.60;;;;;;4988517;28;19969;-80
2022/05/12 00:20:18;;;;;;;;;;;16.50;86.50;;;;;;4997178;28;19917;-79
2022/05/12 00:22:44;;;;;;;;;;;16.40;86.00;;;;;;4997079;28;19992;-80
2022/05/12 00:25:14;;;;;;;;;;;16.50;85.90;;;;;;5005684;28;19917;-80
2022/05/12 00:27:40;;;;;;;;;;;16.40;85.10;;;;;;4980312;28;20019;-79
2022/05/12 00:30:09;;;;;;;;;;;16.40;86.00;;;;;;4988277;28;20013;-80
2022/05/12 00:32:39;;;;;;;;;;;16.40;85.70;;;;;;4986627;28;20048;-79
2022/05/12 00:35:05;;;;;;;;;;;16.30;85.60;;;;;;4989896;28;19964;-79
2022/05/12 00:37:30;;;;;;;;;;;16.30;85.30;;;;;;4989025;28;20121;-80
2022/05/12 00:39:56;;;;;;;;;;;16.10;82.70;;;;;;4988976;28;19960;-80
2022/05/12 00:42:21;;;;;;;;;;;15.90;83.10;;;;;;4989371;28;19976;-80
2022/05/12 00:44:47;;;;;;;;;;;15.70;81.80;;;;;;4973047;28;19914;-79
2022/05/12 00:47:12;;;;;;;;;;;15.60;83.00;;;;;;4993076;28;19918;-80
2022/05/12 00:49:40;;;;;;;;;;;15.60;84.30;;;;;;5009645;28;19972;-80
2022/05/12 00:52:06;;;;;;;;;;;15.60;83.80;;;;;;4993813;28;19940;-80
2022/05/12 00:54:54;;;;;;;;;;;15.30;83.40;;;;;;4966263;28;19918;-81
2022/05/12 00:57:28;;;;;;;;;;;15.30;83.30;;;;;;4973990;28;19914;-80
2022/05/12 00:59:54;;;;;;;;;;;15.30;83.00;;;;;;4987102;28;19921;-81
2022/05/12 01:02:20;;;;;;;;;;;15.20;82.20;;;;;;4989092;28;19909;-81
2022/05/12 01:04:47;;;;;;;;;;;15.10;83.20;;;;;;4986874;28;19924;-81
2022/05/12 01:07:13;;;;;;;;;;;15.00;82.70;;;;;;4976758;28;19929;-81
2022/05/12 01:09:38;;;;;;;;;;;15.00;83.10;;;;;;4977254;28;19913;-80
2022/05/12 01:12:04;;;;;;;;;;;14.90;83.80;;;;;;5006260;28;19913;-81
2022/05/12 01:14:29;;;;;;;;;;;15.00;83.50;;;;;;4978407;28;19925;-81
2022/05/12 01:16:59;;;;;;;;;;;15.00;82.80;;;;;;4995121;28;20014;-81
2022/05/12 01:19:26;;;;;;;;;;;15.00;83.70;;;;;;4994467;28;20149;-81
2022/05/12 01:21:52;;;;;;;;;;;15.00;83.50;;;;;;4993987;28;19921;-81
2022/05/12 01:24:19;;;;;;;;;;;14.80;81.90;;;;;;4996982;28;20037;-81
2022/05/12 01:26:45;;;;;;;;;;;14.70;81.70;;;;;;4995000;28;20382;-81
2022/05/12 01:29:11;;;;;;;;;;;14.60;82.10;;;;;;4991323;28;19953;-81
2022/05/12 01:31:36;;;;;;;;;;;14.60;82.10;;;;;;4994739;28;19914;-80
2022/05/12 01:34:03;;;;;;;;;;;14.50;81.90;;;;;;4993590;28;20297;-80
2022/05/12 01:36:29;;;;;;;;;;;14.40;80.30;;;;;;4976678;28;19936;-80
2022/05/12 01:38:54;;;;;;;;;;;14.30;81.30;;;;;;4992920;28;20656;-80
2022/05/12 01:41:20;;;;;;;;;;;14.30;82.00;;;;;;4993503;28;20001;-80
2022/05/12 01:43:45;;;;;;;;;;;14.20;81.40;;;;;;5002371;28;19917;-79
2022/05/12 01:46:11;;;;;;;;;;;14.20;81.90;;;;;;5013432;28;20435;-80
2022/05/12 01:48:37;;;;;;;;;;;14.20;81.30;;;;;;5006680;28;19922;-79
2022/05/12 01:51:03;;;;;;;;;;;14.10;82.30;;;;;;5004107;28;19977;-80
2022/05/12 01:53:30;;;;;;;;;;;14.10;83.20;;;;;;4992171;28;19925;-79
2022/05/12 01:55:56;;;;;;;;;;;14.10;82.60;;;;;;4993261;28;19925;-79
2022/05/12 01:58:22;;;;;;;;;;;14.10;82.70;;;;;;4991268;28;19918;-79
2022/05/12 02:00:47;;;;;;;;;;;14.10;82.90;;;;;;4993088;28;19914;-79
2022/05/12 02:03:13;;;;;;;;;;;14.10;81.30;;;;;;4992865;28;19913;-79
2022/05/12 02:05:39;;;;;;;;;;;14.10;80.90;;;;;;4992284;28;19914;-79
2022/05/12 02:08:07;;;;;;;;;;;13.80;81.40;;;;;;4991166;28;20119;-79
2022/05/12 02:10:37;;;;;;;;;;;13.80;82.50;;;;;;4990130;28;19949;-79
2022/05/12 02:13:03;;;;;;;;;;;13.80;82.40;;;;;;5009730;28;19941;-79
2022/05/12 02:15:29;;;;;;;;;;;13.80;81.70;;;;;;4995763;28;19922;-79
2022/05/12 02:17:54;;;;;;;;;;;13.80;82.00;;;;;;4992167;28;19913;-79
2022/05/12 02:20:20;;;;;;;;;;;13.80;82.40;;;;;;4999238;28;19909;-79
2022/05/12 02:22:46;;;;;;;;;;;13.80;81.10;;;;;;5001450;28;19917;-78
2022/05/12 02:25:11;;;;;;;;;;;13.60;80.60;;;;;;4975476;28;19992;-79
2022/05/12 02:27:42;;;;;;;;;;;13.60;81.50;;;;;;4990183;28;19917;-78
2022/05/12 02:30:09;;;;;;;;;;;13.50;82.00;;;;;;4997577;28;19973;-78
2022/05/12 02:32:34;;;;;;;;;;;13.50;81.90;;;;;;4991998;28;20368;-78
2022/05/12 02:35:00;;;;;;;;;;;13.40;81.70;;;;;;4993035;28;19921;-78
2022/05/12 02:37:26;;;;;;;;;;;13.40;82.40;;;;;;4991719;28;19957;-79
2022/05/12 02:39:51;;;;;;;;;;;13.40;83.10;;;;;;4986290;28;19926;-79
2022/05/12 02:42:17;;;;;;;;;;;13.50;82.80;;;;;;4992108;28;19925;-78
2022/05/12 02:44:42;;;;;;;;;;;13.50;83.00;;;;;;4982485;28;19925;-79
2022/05/12 02:47:08;;;;;;;;;;;13.40;83.00;;;;;;4992217;28;20527;-79
2022/05/12 02:49:34;;;;;;;;;;;13.40;83.00;;;;;;4990489;28;21503;-79
2022/05/12 02:52:00;;;;;;;;;;;13.40;83.70;;;;;;4992400;28;19913;-78
2022/05/12 02:54:25;;;;;;;;;;;13.40;83.60;;;;;;4983583;28;19914;-79
2022/05/12 02:56:53;;;;;;;;;;;13.50;84.30;;;;;;4989456;28;20305;-79
2022/05/12 02:59:19;;;;;;;;;;;13.40;84.00;;;;;;4989913;28;19917;-79
2022/05/12 03:01:44;;;;;;;;;;;13.40;83.40;;;;;;4973756;28;19933;-78
2022/05/12 03:04:10;;;;;;;;;;;13.30;83.30;;;;;;4991466;28;20001;-78
2022/05/12 03:06:35;;;;;;;;;;;13.40;83.80;;;;;;4989479;28;20428;-78
2022/05/12 03:09:01;;;;;;;;;;;13.30;83.60;;;;;;4976415;28;20388;-79
2022/05/12 03:11:28;;;;;;;;;;;13.30;84.00;;;;;;4989463;28;20005;-79
2022/05/12 03:13:53;;;;;;;;;;;13.30;83.00;;;;;;4990475;28;19961;-79
2022/05/12 03:16:19;;;;;;;;;;;13.30;83.30;;;;;;4988891;28;19969;-79
2022/05/12 03:18:51;;;;;;;;;;;13.20;83.30;;;;;;4990565;28;19924;-79
2022/05/12 03:21:17;;;;;;;;;;;13.20;84.10;;;;;;4990016;28;20208;-79
2022/05/12 03:23:42;;;;;;;;;;;13.20;84.50;;;;;;4991418;28;19930;-79
2022/05/12 03:26:09;;;;;;;;;;;13.20;83.90;;;;;;4989248;28;20289;-78
2022/05/12 03:28:35;;;;;;;;;;;13.10;83.30;;;;;;4989038;28;20308;-78
2022/05/12 03:31:00;;;;;;;;;;;13.10;83.50;;;;;;4990001;28;20025;-78
2022/05/12 03:33:26;;;;;;;;;;;13.00;83.90;;;;;;4990137;28;19921;-79
2022/05/12 03:35:51;;;;;;;;;;;13.10;83.60;;;;;;4990236;28;19953;-79
2022/05/12 03:38:18;;;;;;;;;;;13.00;83.50;;;;;;4991263;28;20352;-79
2022/05/12 03:40:43;;;;;;;;;;;13.00;84.50;;;;;;4988133;28;19949;-79
2022/05/12 03:43:09;;;;;;;;;;;13.00;84.40;;;;;;4985702;28;20011;-79
2022/05/12 03:45:34;;;;;;;;;;;13.10;83.10;;;;;;4987938;28;20165;-79
2022/05/12 03:48:00;;;;;;;;;;;13.00;83.30;;;;;;4974383;28;19924;-79
2022/05/12 03:50:26;;;;;;;;;;;13.00;83.40;;;;;;4986713;28;19924;-79
2022/05/12 03:52:53;;;;;;;;;;;13.00;83.70;;;;;;4990049;28;19981;-79
2022/05/12 03:55:20;;;;;;;;;;;13.10;84.00;;;;;;4986680;28;20427;-79
2022/05/12 03:57:47;;;;;;;;;;;13.00;84.20;;;;;;4971225;28;19925;-79
2022/05/12 04:00:15;;;;;;;;;;;12.90;84.60;;;;;;4976347;28;19914;-79
2022/05/12 04:02:40;;;;;;;;;;;13.00;84.30;;;;;;4972991;28;19960;-79
2022/05/12 04:05:07;;;;;;;;;;;13.00;84.20;;;;;;4989915;28;19913;-78
2022/05/12 04:07:33;;;;;;;;;;;13.00;84.40;;;;;;4975005;28;19980;-79
2022/05/12 04:10:02;;;;;;;;;;;13.00;83.90;;;;;;4990231;28;19968;-79
2022/05/12 04:12:28;;;;;;;;;;;13.00;83.70;;;;;;4969143;28;19961;-79
2022/05/12 04:14:53;;;;;;;;;;;13.00;83.90;;;;;;4994659;28;20301;-80
2022/05/12 04:17:19;;;;;;;;;;;13.10;83.50;;;;;;4993869;28;19941;-78
2022/05/12 04:19:45;;;;;;;;;;;13.00;84.10;;;;;;5001164;28;20675;-78
2022/05/12 04:22:11;;;;;;;;;;;13.10;84.00;;;;;;4973102;28;19914;-77
2022/05/12 04:24:37;;;;;;;;;;;13.10;83.10;;;;;;4990532;28;19925;-80
2022/05/12 04:27:03;;;;;;;;;;;13.10;83.10;;;;;;4989696;28;20101;-77
2022/05/12 04:29:28;;;;;;;;;;;13.10;82.80;;;;;;5000484;28;19914;-77
2022/05/12 04:31:54;;;;;;;;;;;13.10;82.70;;;;;;4993225;28;19921;-78
2022/05/12 04:37:03;;;;;;;;;;;13.10;82.70;;;;;;4988591;28;19965;-77
2022/05/12 04:39:31;;;;;;;;;;;13.10;83.10;;;;;;4987807;28;19921;-78
2022/05/12 04:41:57;;;;;;;;;;;13.10;83.30;;;;;;4985315;28;19917;-77
2022/05/12 04:44:22;;;;;;;;;;;13.20;82.70;;;;;;4980702;28;20274;-79
2022/05/12 04:46:48;;;;;;;;;;;13.20;82.90;;;;;;4978569;28;19913;-78
2022/05/12 04:49:14;;;;;;;;;;;13.40;82.00;;;;;;5002386;28;19936;-79
2022/05/12 04:51:40;;;;;;;;;;;13.40;81.60;;;;;;4982714;28;19967;-79
2022/05/12 04:54:09;;;;;;;;;;;13.60;80.70;;;;;;4997629;28;19921;-80
2022/05/12 04:56:35;;;;;;;;;;;13.70;80.30;;;;;;4990230;28;19937;-80
2022/05/12 04:59:01;;;;;;;;;;;13.70;80.00;;;;;;4986963;28;20503;-79
2022/05/12 05:01:26;;;;;;;;;;;13.60;80.30;;;;;;4995948;28;19921;-80
2022/05/12 05:03:52;;;;;;;;;;;13.70;80.50;;;;;;4992357;28;19922;-80
2022/05/12 05:06:19;;;;;;;;;;;13.80;79.80;;;;;;4975745;28;19914;-80
2022/05/12 05:08:45;;;;;;;;;;;13.90;79.80;;;;;;4998854;28;20451;-81
2022/05/12 05:11:10;;;;;;;;;;;14.00;79.10;;;;;;4974099;28;19914;-80
2022/05/12 05:13:36;;;;;;;;;;;14.10;78.90;;;;;;4989455;28;19926;-80
2022/05/12 05:16:02;;;;;;;;;;;14.20;80.00;;;;;;4992114;28;20013;-80
2022/05/12 05:18:28;;;;;;;;;;;14.30;77.70;;;;;;4974172;28;19913;-80
2022/05/12 05:20:53;;;;;;;;;;;14.30;78.60;;;;;;4986115;28;20005;-80
2022/05/12 05:23:21;;;;;;;;;;;14.50;78.10;;;;;;4991742;28;19945;-81
2022/05/12 05:25:47;;;;;;;;;;;14.70;77.00;;;;;;4993173;28;19989;-79
2022/05/12 05:28:13;;;;;;;;;;;14.70;76.40;;;;;;4991231;28;19972;-81
2022/05/12 05:30:39;;;;;;;;;;;14.90;76.60;;;;;;4994174;28;19913;-79
2022/05/12 05:33:06;;;;;;;;;;;14.90;76.60;;;;;;4995995;28;20009;-79
2022/05/12 05:35:31;;;;;;;;;;;14.70;76.60;;;;;;5009532;28;19933;-79
2022/05/12 05:37:56;;;;;;;;;;;14.80;76.80;;;;;;5008238;28;19917;-80
2022/05/12 05:40:23;;;;;;;;;;;14.80;77.20;;;;;;4998030;28;20206;-79
2022/05/12 05:42:49;;;;;;;;;;;14.60;77.70;;;;;;5013135;28;19928;-79
2022/05/12 05:45:17;;;;;;;;;;;14.80;77.20;;;;;;5004791;28;20005;-79
2022/05/12 05:47:54;;;;;;;;;;;14.80;76.60;;;;;;4995729;28;19921;-79
2022/05/12 05:50:25;;;;;;;;;;;14.70;77.10;;;;;;4972543;28;20333;-79
2022/05/12 05:55:34;;;;;;;;;;;15.00;76.10;;;;;;4989432;28;20324;-79
2022/05/12 05:58:01;;;;;;;;;;;15.00;75.60;;;;;;4994713;28;19910;-79
2022/05/12 06:00:27;;;;;;;;;;;14.90;76.20;;;;;;4991519;28;19971;-79
2022/05/12 06:02:52;;;;;;;;;;;14.90;76.30;;;;;;4993596;28;20515;-79
2022/05/12 06:05:18;;;;;;;;;;;14.80;75.40;;;;;;4991907;28;19913;-83
2022/05/12 06:07:44;;;;;;;;;;;14.70;76.20;;;;;;4976260;28;19925;-80
2022/05/12 06:10:10;;;;;;;;;;;14.80;76.40;;;;;;4993592;28;20004;-81
2022/05/12 06:12:36;;;;;;;;;;;15.10;74.80;;;;;;4993101;28;20368;-80
2022/05/12 06:15:02;;;;;;;;;;;15.10;74.70;;;;;;4994568;28;19913;-80
2022/05/12 06:17:27;;;;;;;;;;;15.40;74.60;;;;;;4993850;28;19918;-81
2022/05/12 06:19:54;;;;;;;;;;;15.60;74.10;;;;;;4986522;28;19932;-80
2022/05/12 06:22:19;;;;;;;;;;;15.60;73.40;;;;;;4988826;28;20373;-80
2022/05/12 06:24:47;;;;;;;;;;;15.60;73.70;;;;;;4993974;28;19964;-81
2022/05/12 06:27:13;;;;;;;;;;;15.50;72.80;;;;;;4994427;28;20346;-82
2022/05/12 06:29:41;;;;;;;;;;;15.20;73.70;;;;;;4992715;28;20009;-81
2022/05/12 06:32:07;;;;;;;;;;;15.10;74.50;;;;;;4977223;28;20379;-81
2022/05/12 06:34:32;;;;;;;;;;;15.30;74.60;;;;;;4977323;28;19941;-81
2022/05/12 06:36:59;;;;;;;;;;;15.30;74.60;;;;;;4973945;28;19918;-81
2022/05/12 06:39:25;;;;;;;;;;;15.20;74.50;;;;;;4973973;28;20008;-81
2022/05/12 06:41:51;;;;;;;;;;;15.30;74.10;;;;;;4992514;28;20435;-80
2022/05/12 06:44:16;;;;;;;;;;;15.30;74.30;;;;;;4998614;28;19921;-81
2022/05/12 06:46:43;;;;;;;;;;;15.10;75.20;;;;;;4995035;28;19913;-80
2022/05/12 06:49:08;;;;;;;;;;;15.20;74.90;;;;;;4992364;28;19910;-80
2022/05/12 06:51:34;;;;;;;;;;;15.40;74.10;;;;;;4992130;28;20245;-80
2022/05/12 06:53:59;;;;;;;;;;;15.40;74.10;;;;;;4993163;28;19941;-80
2022/05/12 06:56:25;;;;;;;;;;;15.50;73.30;;;;;;4991116;28;20012;-82
2022/05/12 06:58:50;;;;;;;;;;;15.40;74.40;;;;;;4990771;28;19917;-82
2022/05/12 07:01:16;;;;;;;;;;;15.50;73.90;;;;;;4991743;28;19929;-82
2022/05/12 07:03:41;;;;;;;;;;;15.50;72.80;;;;;;5012441;28;19897;-83
2022/05/12 07:06:07;;;;;;;;;;;15.60;73.50;;;;;;5024061;28;20020;-82
2022/05/12 07:08:36;;;;;;;;;;;15.80;73.40;;;;;;5011887;28;20400;-81
2022/05/12 07:11:02;;;;;;;;;;;16.00;70.90;;;;;;5009975;28;19921;-82
2022/05/12 07:13:29;;;;;;;;;;;16.20;70.60;;;;;;4993331;28;20196;-82
2022/05/12 07:15:55;;;;;;;;;;;16.40;69.60;;;;;;4992063;28;19941;-81
2022/05/12 07:18:20;;;;;;;;;;;16.60;68.90;;;;;;4993692;28;20304;-82
2022/05/12 07:29:01;;;;;;;;;;;16.90;66.70;;;;;;4991097;28;20005;-81
2022/05/12 07:31:27;;;;;;;;;;;16.80;67.20;;;;;;5011452;28;19953;-81
2022/05/12 07:33:52;;;;;;;;;;;16.80;67.70;;;;;;4992273;28;20293;-81
2022/05/12 07:36:19;;;;;;;;;;;17.10;67.10;;;;;;5008375;28;20393;-81
2022/05/12 07:38:45;;;;;;;;;;;17.10;66.10;;;;;;4992897;28;19976;-81
2022/05/12 07:41:12;;;;;;;;;;;17.10;65.40;;;;;;5007201;28;19921;-81
2022/05/12 07:43:41;;;;;;;;;;;17.10;65.40;;;;;;4992257;28;19913;-81
2022/05/12 07:46:07;;;;;;;;;;;17.20;65.60;;;;;;4990594;28;19913;-81
2022/05/12 07:48:32;;;;;;;;;;;17.30;66.20;;;;;;4992343;28;19921;-81
2022/05/12 07:50:58;;;;;;;;;;;17.30;64.70;;;;;;4991807;28;19910;-81
2022/05/12 07:53:24;;;;;;;;;;;17.40;64.30;;;;;;5006345;28;19920;-82
2022/05/12 07:55:50;;;;;;;;;;;17.50;63.80;;;;;;4987170;28;19914;-82
2022/05/12 07:58:15;;;;;;;;;;;17.60;63.40;;;;;;5004069;28;19921;-82
2022/05/12 08:00:41;;;;;;;;;;;17.70;64.20;;;;;;5010998;28;19925;-83
2022/05/12 08:03:06;;;;;;;;;;;17.80;61.90;;;;;;4996533;28;19988;-83
2022/05/12 08:05:32;;;;;;;;;;;17.90;62.30;;;;;;5009771;28;19921;-83
2022/05/12 08:07:57;;;;;;;;;;;17.70;61.40;;;;;;5013613;28;19921;-83
2022/05/12 08:10:23;;;;;;;;;;;17.80;62.70;;;;;;4991975;28;19922;-84
2022/05/12 08:12:50;;;;;;;;;;;17.90;61.30;;;;;;5003351;28;19926;-83
2022/05/12 08:15:15;;;;;;;;;;;18.10;60.50;;;;;;5008208;28;19929;-83
2022/05/12 08:17:41;;;;;;;;;;;18.10;60.30;;;;;;5008779;28;20479;-84
2022/05/12 08:20:07;;;;;;;;;;;18.00;60.10;;;;;;4991885;28;19921;-83
2022/05/12 08:22:33;;;;;;;;;;;18.00;61.60;;;;;;5008595;28;20373;-83
2022/05/12 08:24:58;;;;;;;;;;;18.10;61.40;;;;;;5017349;28;19925;-83
2022/05/12 08:27:25;;;;;;;;;;;18.00;59.70;;;;;;5010227;28;19926;-83
2022/05/12 08:29:53;;;;;;;;;;;17.80;61.30;;;;;;4993985;28;19916;-83
2022/05/12 08:32:19;;;;;;;;;;;17.60;62.30;;;;;;4993437;28;20005;-83
2022/05/12 08:34:44;;;;;;;;;;;17.50;61.80;;;;;;4987693;28;19933;-84
2022/05/12 08:37:10;;;;;;;;;;;17.60;62.50;;;;;;4974577;28;19910;-82
2022/05/12 08:39:36;;;;;;;;;;;17.60;62.40;;;;;;4973416;28;20284;-83
2022/05/12 08:42:07;;;;;;;;;;;17.80;61.40;;;;;;4973553;28;19918;-83
2022/05/12 08:44:36;;;;;;;;;;;17.90;61.20;;;;;;4973597;28;19940;-84
2022/05/12 08:47:03;;;;;;;;;;;18.00;60.50;;;;;;5008343;28;19920;-84
2022/05/12 08:49:30;;;;;;;;;;;18.00;60.20;;;;;;4991443;28;19917;-83
2022/05/12 08:52:15;;;;;;;;;;;18.20;59.40;;;;;;5008348;28;20009;-83
2022/05/12 08:54:43;;;;;;;;;;;18.30;58.10;;;;;;5009390;28;19917;-83
2022/05/12 08:57:17;;;;;;;;;;;18.20;58.20;;;;;;5009703;28;19922;-83
2022/05/12 08:59:43;;;;;;;;;;;18.20;57.70;;;;;;5009839;28;19953;-83
2022/05/12 09:02:18;;;;;;;;;;;18.10;56.50;;;;;;4992238;28;20332;-83
2022/05/12 09:04:49;;;;;;;;;;;18.30;56.90;;;;;;5007954;28;19914;-84
2022/05/12 09:07:28;;;;;;;;;;;18.30;54.90;;;;;;5009489;28;19996;-83
2022/05/12 09:10:12;;;;;;;;;;;18.40;54.30;;;;;;5008285;28;20431;-84
2022/05/12 09:12:45;;;;;;;;;;;18.70;55.30;;;;;;4991562;28;20435;-83
2022/05/12 09:15:13;;;;;;;;;;;18.90;54.90;;;;;;5017414;28;19941;-84
2022/05/12 09:17:42;;;;;;;;;;;18.90;54.40;;;;;;4993551;28;19910;-83
2022/05/12 09:20:09;;;;;;;;;;;18.90;54.60;;;;;;4991812;28;19910;-83
2022/05/12 09:22:35;;;;;;;;;;;18.90;53.00;;;;;;4992136;28;19969;-83
2022/05/12 09:25:01;;;;;;;;;;;18.70;55.90;;;;;;5010461;28;19921;-82
2022/05/12 09:27:32;;;;;;;;;;;18.80;55.80;;;;;;5029085;28;19910;-84
2022/05/12 09:30:21;;;;;;;;;;;18.60;55.60;;;;;;5053345;23;20012;-83
2022/05/12 09:39:03;;;;;;;;;;;18.70;53.20;;;;;;4988076;28;19914;-81
2022/05/12 09:41:42;;;;;;;;;;;18.90;54.60;;;;;;5016673;28;19989;-80
2022/05/12 09:44:20;;;;;;;;;;;19.00;53.60;;;;;;5014276;28;19924;-82
2022/05/12 09:46:54;;;;;;;;;;;19.00;52.30;;;;;;5002212;28;19913;-82
2022/05/12 09:49:21;;;;;;;;;;;18.90;52.50;;;;;;4983465;28;19957;-81
2022/05/12 09:51:47;;;;;;;;;;;19.00;53.30;;;;;;4987799;28;19914;-81
2022/05/12 09:54:15;;;;;;;;;;;19.00;53.10;;;;;;4997121;28;19963;-82
2022/05/12 09:56:41;;;;;;;;;;;19.10;53.30;;;;;;4976168;28;20271;-82
2022/05/12 09:59:24;;;;;;;;;;;19.30;51.80;;;;;;5001868;23;19941;-80
2022/05/12 10:01:57;;;;;;;;;;;19.20;51.60;;;;;;4978307;28;19914;-79
2022/05/12 10:10:16;;;;;;;;;;;19.30;51.50;;;;;;4955007;28;19921;-79
2022/05/12 10:12:46;;;;;;;;;;;19.30;51.50;;;;;;4954581;28;19918;-80
2022/05/12 10:15:19;;;;;;;;;;;19.40;51.50;;;;;;5001946;28;19918;-80
2022/05/12 10:17:55;;;;;;;;;;;19.60;50.70;;;;;;4975663;28;19925;-80
2022/05/12 10:20:22;;;;;;;;;;;19.50;49.50;;;;;;4997681;28;19911;-80
2022/05/12 10:22:59;;;;;;;;;;;19.50;50.40;;;;;;4957045;28;20021;-80
2022/05/12 10:25:24;;;;;;;;;;;19.40;50.50;;;;;;4972922;28;19933;-79
2022/05/12 10:27:50;;;;;;;;;;;19.20;50.90;;;;;;5005002;28;19922;-80
2022/05/12 10:30:27;;;;;;;;;;;19.10;52.00;;;;;;4974050;28;19910;-80
2022/05/12 10:32:58;;;;;;;;;;;19.00;52.50;;;;;;4974871;28;20001;-80
2022/05/12 10:35:31;;;;;;;;;;;19.10;53.20;;;;;;5003539;28;19910;-80
2022/05/12 10:38:00;;;;;;;;;;;19.10;52.80;;;;;;4974152;28;20012;-79
2022/05/12 10:40:31;;;;;;;;;;;19.00;51.00;;;;;;4972722;28;19910;-80
2022/05/12 10:42:59;;;;;;;;;;;18.90;51.20;;;;;;4973789;28;20014;-80
2022/05/12 10:45:25;;;;;;;;;;;18.80;51.10;;;;;;4972855;28;19989;-80
2022/05/12 10:48:00;;;;;;;;;;;18.80;51.30;;;;;;4973985;28;20423;-80
2022/05/12 10:50:31;;;;;;;;;;;19.00;51.10;;;;;;4972243;28;19921;-79
2022/05/12 10:53:15;;;;;;;;;;;18.90;52.00;;;;;;4965915;28;19968;-81
2022/05/12 10:55:55;;;;;;;;;;;18.90;52.50;;;;;;4961736;28;19968;-79
2022/05/12 10:58:26;;;;;;;;;;;19.00;52.20;;;;;;4993904;28;19949;-79
2022/05/12 11:01:05;;;;;;;;;;;19.00;52.40;;;;;;4978842;28;19926;-79
2022/05/12 11:03:35;;;;;;;;;;;19.10;51.70;;;;;;4961117;28;19919;-79
2022/05/12 11:06:05;;;;;;;;;;;19.10;50.70;;;;;;4963844;28;19920;-78
2022/05/12 11:08:45;;;;;;;;;;;19.10;50.70;;;;;;4971112;28;19925;-79
2022/05/12 11:11:12;;;;;;;;;;;19.20;51.60;;;;;;4966637;28;19914;-79
2022/05/12 11:13:50;;;;;;;;;;;19.30;51.60;;;;;;4977626;28;19957;-81
2022/05/12 11:16:25;;;;;;;;;;;19.30;51.60;;;;;;4977230;28;19913;-81
2022/05/12 11:19:01;;;;;;;;;;;19.40;51.60;;;;;;4990522;28;20228;-81
2022/05/12 11:21:29;;;;;;;;;;;19.50;51.50;;;;;;4993977;28;19915;-81
2022/05/12 11:24:11;;;;;;;;;;;19.50;50.20;;;;;;4969328;28;19921;-80
2022/05/12 11:26:57;;;;;;;;;;;19.30;49.80;;;;;;4999065;28;19918;-82
2022/05/12 11:29:48;;;;;;;;;;;19.50;50.90;;;;;;4978188;28;19918;-81
2022/05/12 11:32:19;;;;;;;;;;;19.60;49.40;;;;;;4979621;28;20368;-81
2022/05/12 11:34:46;;;;;;;;;;;19.80;47.80;;;;;;4973596;28;19922;-80
2022/05/12 11:37:33;;;;;;;;;;;19.80;48.00;;;;;;4985388;28;20000;-81
2022/05/12 11:40:04;;;;;;;;;;;19.80;47.80;;;;;;4988947;28;20301;-80
2022/05/12 11:44:23;;;;;;;;;;;19.60;48.20;;;;;;5003828;28;19977;-80
2022/05/12 11:45:31;;;;;;;;;;;19.60;48.50;;;;;;4977519;28;19968;-80
2022/05/12 11:48:08;;;;;;;;;;;19.80;49.00;;;;;;4980668;28;19929;-81
2022/05/12 11:50:53;;;;;;;;;;;19.80;48.50;;;;;;4974661;28;19924;-81
2022/05/12 11:53:20;;;;;;;;;;;20.00;48.90;;;;;;4969889;28;19918;-80
2022/05/12 11:55:56;;;;;;;;;;;20.00;48.00;;;;;;4971852;28;20036;-81
2022/05/12 11:58:31;;;;;;;;;;;20.00;47.60;;;;;;4981514;28;19922;-81
2022/05/12 12:00:57;;;;;;;;;;;20.10;45.50;;;;;;4982800;28;19918;-81
2022/05/12 12:03:23;;;;;;;;;;;20.00;44.90;;;;;;4987130;28;20286;-81
2022/05/12 12:05:48;;;;;;;;;;;20.10;44.50;;;;;;4964894;28;19950;-82
2022/05/12 12:08:32;;;;;;;;;;;20.20;43.60;;;;;;4971787;28;20258;-82
2022/05/12 12:11:13;;;;;;;;;;;20.00;43.20;;;;;;4984496;28;20452;-84
2022/05/12 12:13:39;;;;;;;;;;;20.00;44.80;;;;;;4986741;28;20376;-83
2022/05/12 12:16:12;;;;;;;;;;;20.10;44.10;;;;;;4975219;28;19933;-83
2022/05/12 12:18:38;;;;;;;;;;;20.20;44.10;;;;;;4972995;28;19918;-83
2022/05/12 12:21:22;;;;;;;;;;;20.10;45.70;;;;;;4996114;28;19921;-83
2022/05/12 12:24:09;;;;;;;;;;;20.30;45.30;;;;;;4996943;28;20248;-84
2022/05/12 12:26:37;;;;;;;;;;;20.40;43.50;;;;;;4964830;28;19918;-84
2022/05/12 12:29:08;;;;;;;;;;;20.30;43.30;;;;;;4967250;28;20782;-85
2022/05/12 12:31:40;;;;;;;;;;;20.20;44.50;;;;;;4990097;28;20507;-84
2022/05/12 12:34:11;;;;;;;;;;;20.20;44.20;;;;;;4954644;28;19911;-84
2022/05/12 12:36:37;;;;;;;;;;;20.40;44.60;;;;;;4990951;28;19921;-83
2022/05/12 12:39:06;;;;;;;;;;;20.50;43.80;;;;;;4956083;28;19914;-84
2022/05/12 12:41:34;;;;;;;;;;;20.70;43.90;;;;;;4955765;28;19914;-85
2022/05/12 12:43:59;;;;;;;;;;;20.90;42.60;;;;;;4971792;28;19987;-84
2022/05/12 12:46:28;;;;;;;;;;;21.10;42.80;;;;;;5006163;28;19918;-84
2022/05/12 12:49:03;;;;;;;;;;;21.20;43.20;;;;;;5006914;28;20276;-84
2022/05/12 12:51:29;;;;;;;;;;;21.40;42.60;;;;;;5007002;28;19922;-84
2022/05/12 12:56:41;;;;;;;;;;;21.00;40.60;;;;;;4962304;28;19933;-84
2022/05/12 12:59:11;;;;;;;;;;;20.80;41.30;;;;;;4996089;28;20316;-84
2022/05/12 13:01:37;;;;;;;;;;;21.00;41.60;;;;;;5005819;28;20347;-84
2022/05/12 13:04:02;;;;;;;;;;;20.90;40.60;;;;;;4975950;28;19953;-84
2022/05/12 13:06:30;;;;;;;;;;;21.10;42.30;;;;;;4976415;28;19968;-83
2022/05/12 13:09:00;;;;;;;;;;;21.10;40.90;;;;;;5006213;28;19914;-84
2022/05/12 13:11:26;;;;;;;;;;;21.10;40.90;;;;;;4961337;28;19973;-84
2022/05/12 13:13:53;;;;;;;;;;;21.10;41.70;;;;;;4970752;28;20362;-84
2022/05/12 13:16:21;;;;;;;;;;;21.30;42.20;;;;;;5015745;28;19924;-84
2022/05/12 13:18:49;;;;;;;;;;;21.50;41.60;;;;;;5013001;28;19902;-84
2022/05/12 13:21:24;;;;;;;;;;;21.50;40.10;;;;;;4995991;28;20428;-85
2022/05/12 13:23:57;;;;;;;;;;;21.40;39.20;;;;;;4990866;28;20025;-84
2022/05/12 13:26:22;;;;;;;;;;;21.30;41.40;;;;;;4990172;28;20379;-85
2022/05/12 13:28:48;;;;;;;;;;;21.30;42.40;;;;;;4987570;28;19918;-84
2022/05/12 13:31:23;;;;;;;;;;;21.30;42.00;;;;;;4974932;28;19957;-84
2022/05/12 13:34:04;;;;;;;;;;;21.30;42.90;;;;;;4989909;28;20445;-84
2022/05/12 13:36:32;;;;;;;;;;;21.20;42.60;;;;;;4974962;28;19950;-84
2022/05/12 13:38:58;;;;;;;;;;;21.20;42.10;;;;;;4979154;28;19910;-85
2022/05/12 13:41:30;;;;;;;;;;;21.30;42.60;;;;;;4978180;28;19933;-84
2022/05/12 13:44:07;;;;;;;;;;;21.30;43.00;;;;;;4973952;28;19910;-84
2022/05/12 13:46:34;;;;;;;;;;;21.10;41.90;;;;;;5008771;28;19916;-84
2022/05/12 13:49:01;;;;;;;;;;;21.10;42.80;;;;;;4980691;28;19918;-83
2022/05/12 13:51:45;;;;;;;;;;;21.30;42.10;;;;;;4973413;28;19922;-84
2022/05/12 13:54:24;;;;;;;;;;;21.30;41.50;;;;;;4986459;28;19915;-85
2022/05/12 13:56:50;;;;;;;;;;;21.30;41.30;;;;;;4959047;28;19910;-83
2022/05/12 13:59:19;;;;;;;;;;;21.30;41.60;;;;;;4985841;28;19965;-83
2022/05/12 14:01:46;;;;;;;;;;;21.30;41.30;;;;;;4969486;28;20325;-84
2022/05/12 14:04:18;;;;;;;;;;;21.30;42.20;;;;;;5003350;28;19910;-84
2022/05/12 14:06:51;;;;;;;;;;;21.10;42.00;;;;;;4956530;28;19915;-83
2022/05/12 14:09:25;;;;;;;;;;;21.10;42.30;;;;;;5002380;28;19918;-83
2022/05/12 14:12:19;;;;;;;;;;;21.10;41.20;;;;;;4917828;28;20231;-84
2022/05/12 14:20:13;;;;;;;;;;;21.30;41.30;;;;;;4866440;28;20245;-83
2022/05/12 14:22:39;;;;;;;;;;;21.30;41.50;;;;;;4882665;28;20196;-84
2022/05/12 14:25:05;;;;;;;;;;;21.40;41.70;;;;;;4893330;28;20152;-84
2022/05/12 14:27:31;;;;;;;;;;;21.50;40.90;;;;;;4891440;28;20265;-83
2022/05/12 14:30:03;;;;;;;;;;;21.50;40.70;;;;;;4869342;28;20417;-84
2022/05/12 14:32:40;;;;;;;;;;;21.40;42.00;;;;;;4902384;28;20236;-83
2022/05/12 14:35:14;;;;;;;;;;;21.50;41.70;;;;;;4876188;28;20257;-84
2022/05/12 14:37:40;;;;;;;;;;;21.50;42.00;;;;;;4868945;28;20188;-84
2022/05/12 14:40:06;;;;;;;;;;;21.50;40.90;;;;;;4900399;28;20671;-83
2022/05/12 14:42:33;;;;;;;;;;;21.30;41.80;;;;;;4902950;28;20331;-84
2022/05/12 14:44:58;;;;;;;;;;;21.40;41.40;;;;;;4905228;28;20005;-82
2022/05/12 14:47:27;;;;;;;;;;;21.40;41.60;;;;;;4906847;28;19922;-84
2022/05/12 14:49:52;;;;;;;;;;;21.40;40.90;;;;;;4923336;28;19946;-82
2022/05/12 14:52:21;;;;;;;;;;;21.30;41.80;;;;;;4928959;28;20398;-82
2022/05/12 14:54:47;;;;;;;;;;;21.40;42.00;;;;;;4952523;28;20029;-84
2022/05/12 14:57:12;;;;;;;;;;;21.50;41.40;;;;;;4948721;28;19964;-81